Time;durP1;ratioP1;P1;durP2;ratioP2;P2;SDS_P1;SDS_P2;PMS_P1;PMS_P2;Temp;Humidity;BMP_temperature;BMP_pressure;BME280_temperature;BME280_humidity;BME280_pressure;Samples;Min_cycle;Max_cycle;Signal;HPM_P1;HPM_P2
2022/04/22 00:02:01;;;;;;;6.97;5.93;;;;;;;15.98;41.44;100820.59;6339633;22;20015;-64
2022/04/22 00:04:32;;;;;;;10.45;6.50;;;;;;;15.96;41.54;100810.91;6339898;22;20045;-65
2022/04/22 00:07:00;;;;;;;7.20;5.90;;;;;;;15.94;41.67;100804.78;6311970;22;20038;-64
2022/04/22 00:09:27;;;;;;;8.88;6.35;;;;;;;15.91;41.76;100815.91;6343313;22;20014;-64
2022/04/22 00:11:53;;;;;;;7.78;5.70;;;;;;;15.87;41.63;100812.63;6291928;22;20035;-64
2022/04/22 00:14:20;;;;;;;9.02;6.32;;;;;;;15.83;41.78;100811.22;6340883;22;20444;-64
2022/04/22 00:16:47;;;;;;;9.73;5.95;;;;;;;15.80;41.99;100811.50;6338765;22;20022;-65
2022/04/22 00:19:14;;;;;;;7.68;6.72;;;;;;;15.77;42.04;100799.09;6340032;22;20015;-65
2022/04/22 00:21:42;;;;;;;10.65;6.65;;;;;;;15.76;42.18;100800.09;6339436;22;20019;-65
2022/04/22 00:24:09;;;;;;;8.02;6.00;;;;;;;15.71;42.13;100788.84;6339134;22;20068;-65
2022/04/22 00:26:35;;;;;;;9.23;6.75;;;;;;;15.68;42.28;100785.56;6340530;22;20017;-64
2022/04/22 00:29:02;;;;;;;9.65;6.95;;;;;;;15.65;42.40;100791.28;6340047;22;20094;-64
2022/04/22 00:31:29;;;;;;;10.43;7.13;;;;;;;15.60;42.47;100793.53;6339699;22;20340;-65
2022/04/22 00:33:55;;;;;;;10.15;6.70;;;;;;;15.55;42.63;100792.06;6339648;22;20015;-63
2022/04/22 00:36:22;;;;;;;11.32;6.53;;;;;;;15.52;42.78;100781.53;6338416;22;20067;-64
2022/04/22 00:38:48;;;;;;;13.50;6.75;;;;;;;15.48;42.79;100782.81;6312308;22;20455;-64
2022/04/22 00:41:15;;;;;;;10.10;6.60;;;;;;;15.45;43.05;100784.94;6339084;22;20015;-65
2022/04/22 00:43:42;;;;;;;9.27;6.63;;;;;;;15.42;43.16;100796.06;6339781;22;20038;-64
2022/04/22 00:46:09;;;;;;;9.90;6.85;;;;;;;15.38;43.03;100791.91;6339430;22;20034;-64
2022/04/22 00:48:37;;;;;;;11.50;8.02;;;;;;;15.35;43.24;100784.09;6338905;22;20011;-64
2022/04/22 00:51:13;;;;;;;7.68;6.63;;;;;;;15.31;43.37;100782.66;6338742;22;20026;-64
2022/04/22 00:53:42;;;;;;;8.95;7.15;;;;;;;15.28;43.51;100778.38;6339714;22;20007;-64
2022/04/22 00:56:13;;;;;;;9.90;7.68;;;;;;;15.26;43.61;100780.38;6311471;22;20089;-64
2022/04/22 00:58:45;;;;;;;10.90;7.40;;;;;;;15.20;43.70;100781.78;6338967;22;20011;-64
2022/04/22 01:01:12;;;;;;;10.30;7.18;;;;;;;15.17;43.70;100781.22;6339268;22;20017;-64
2022/04/22 01:09:46;;;;;;;10.18;7.47;;;;;;;15.12;43.94;100778.06;6339316;22;20441;-64
2022/04/22 01:12:08;;;;;;;8.88;7.70;;;;;;;15.04;44.05;100759.00;6338737;22;20019;-64
2022/04/22 01:14:35;;;;;;;10.63;7.90;;;;;;;15.03;44.14;100773.50;6311854;22;20011;-65
2022/04/22 01:17:04;;;;;;;9.77;8.00;;;;;;;15.00;44.42;100766.53;6338712;22;20110;-63
2022/04/22 01:19:31;;;;;;;12.82;8.35;;;;;;;14.97;44.52;100763.25;6310622;22;20457;-64
2022/04/22 01:21:58;;;;;;;10.77;8.38;;;;;;;14.94;44.46;100764.38;6339053;22;20061;-64
2022/04/22 01:24:27;;;;;;;9.38;8.32;;;;;;;14.92;44.79;100769.94;6339294;22;20086;-64
2022/04/22 01:26:55;;;;;;;10.85;8.77;;;;;;;14.88;44.69;100762.22;6338752;22;20025;-64
2022/04/22 01:29:22;;;;;;;9.27;8.00;;;;;;;14.85;44.84;100755.22;6311221;22;20093;-64
2022/04/22 01:31:48;;;;;;;11.48;7.97;;;;;;;14.85;44.93;100759.78;6310257;22;20019;-64
2022/04/22 01:34:15;;;;;;;10.10;8.40;;;;;;;14.84;44.86;100750.81;6339064;22;20011;-64
2022/04/22 01:36:43;;;;;;;10.43;8.43;;;;;;;14.83;44.97;100753.66;6310810;22;20015;-64
2022/04/22 01:39:10;;;;;;;9.75;7.57;;;;;;;14.81;44.87;100747.53;6338747;22;20011;-65
2022/04/22 01:41:36;;;;;;;10.80;8.20;;;;;;;14.80;45.29;100746.66;6339195;22;20026;-64
2022/04/22 01:44:04;;;;;;;9.63;8.35;;;;;;;14.76;45.22;100745.25;6338386;22;20045;-64
2022/04/22 01:46:32;;;;;;;10.70;8.65;;;;;;;14.73;45.23;100745.50;6338812;22;20011;-65
2022/04/22 01:48:59;;;;;;;13.23;9.00;;;;;;;14.71;45.41;100739.38;6284922;22;20022;-65
2022/04/22 01:51:25;;;;;;;11.30;8.88;;;;;;;14.68;45.51;100739.66;6310760;22;20026;-64
2022/04/22 01:53:52;;;;;;;16.60;9.18;;;;;;;14.66;45.43;100740.78;6311378;22;20011;-65
2022/04/22 01:56:19;;;;;;;10.45;8.90;;;;;;;14.64;45.56;100738.22;6338566;22;20006;-65
2022/04/22 01:58:46;;;;;;;11.52;8.75;;;;;;;14.64;45.46;100743.63;6285096;22;20042;-64
2022/04/22 02:01:12;;;;;;;11.45;8.95;;;;;;;14.65;45.72;100747.19;6338127;22;20019;-63
2022/04/22 02:03:40;;;;;;;11.88;9.27;;;;;;;14.63;45.66;100742.78;6338956;22;20471;-64
2022/04/22 02:06:07;;;;;;;11.93;8.93;;;;;;;14.61;45.68;100739.38;6310933;22;20433;-65
2022/04/22 02:08:40;;;;;;;10.73;8.02;;;;;;;14.61;45.83;100746.63;6338505;22;20011;-65
2022/04/22 02:11:07;;;;;;;11.55;8.95;;;;;;;14.59;45.76;100754.00;6309690;22;20015;-64
2022/04/22 02:13:36;;;;;;;12.95;8.93;;;;;;;14.57;45.99;100746.03;6310865;22;20333;-64
2022/04/22 02:16:07;;;;;;;10.77;8.98;;;;;;;14.56;45.85;100743.47;6338408;22;20011;-65
2022/04/22 02:18:37;;;;;;;16.40;8.88;;;;;;;14.54;46.05;100746.31;6339102;22;20060;-65
2022/04/22 02:21:05;;;;;;;13.35;8.45;;;;;;;14.52;46.07;100742.88;6338500;22;20011;-63
2022/04/22 02:23:32;;;;;;;12.20;9.02;;;;;;;14.51;45.79;100738.47;6311467;22;20015;-65
2022/04/22 02:26:00;;;;;;;12.07;9.45;;;;;;;14.49;45.95;100742.31;6285055;22;20018;-64
2022/04/22 02:28:33;;;;;;;10.98;9.20;;;;;;;14.44;45.94;100744.56;6311173;22;20341;-64
2022/04/22 02:31:06;;;;;;;12.65;9.32;;;;;;;14.41;46.22;100744.81;6337898;22;20017;-63
2022/04/22 02:33:39;;;;;;;12.20;8.82;;;;;;;14.39;46.30;100744.94;6338485;22;20015;-64
2022/04/22 02:36:07;;;;;;;13.02;9.40;;;;;;;14.36;46.24;100739.81;6311034;22;20015;-64
2022/04/22 02:38:34;;;;;;;12.48;10.20;;;;;;;14.34;46.28;100738.22;6338240;22;20010;-64
2022/04/22 02:46:32;;;;;;;13.60;9.48;;;;;;;14.27;46.50;100730.66;6338120;22;20248;-64
2022/04/22 02:49:00;;;;;;;13.57;10.32;;;;;;;14.23;46.37;100733.78;6311645;22;20022;-64
2022/04/22 02:51:27;;;;;;;13.43;9.85;;;;;;;14.19;46.54;100725.09;6338280;22;20037;-63
2022/04/22 02:53:54;;;;;;;17.27;9.75;;;;;;;14.18;46.68;100722.53;6338773;22;20011;-65
2022/04/22 02:56:22;;;;;;;14.25;10.15;;;;;;;14.16;46.83;100714.56;6311224;22;20021;-64
2022/04/22 02:58:49;;;;;;;14.20;10.10;;;;;;;14.15;46.81;100718.25;6338709;22;20041;-65
2022/04/22 03:01:16;;;;;;;13.38;10.43;;;;;;;14.16;46.92;100714.56;6310917;22;20019;-65
2022/04/22 03:03:43;;;;;;;13.68;9.95;;;;;;;14.13;46.80;100720.22;6338657;22;20056;-64
2022/04/22 03:06:12;;;;;;;12.70;10.77;;;;;;;14.09;47.02;100726.84;6338429;22;20010;-65
2022/04/22 03:08:38;;;;;;;15.55;10.60;;;;;;;14.06;47.04;100724.44;6338688;22;20045;-65
2022/04/22 03:11:05;;;;;;;16.27;10.32;;;;;;;14.04;47.20;100723.72;6337963;22;20014;-65
2022/04/22 03:13:33;;;;;;;13.15;11.13;;;;;;;14.02;47.20;100716.72;6310374;22;20102;-65
2022/04/22 03:16:02;;;;;;;13.88;10.52;;;;;;;13.99;47.30;100716.00;6338682;22;20011;-65
2022/04/22 03:18:28;;;;;;;15.05;11.18;;;;;;;13.96;47.25;100713.56;6310341;22;20011;-65
2022/04/22 03:20:56;;;;;;;15.35;10.48;;;;;;;13.94;47.42;100709.31;6310462;22;20361;-65
2022/04/22 03:23:23;;;;;;;14.00;10.85;;;;;;;13.90;47.45;100716.81;6338884;22;20011;-64
2022/04/22 03:25:50;;;;;;;15.20;10.77;;;;;;;13.91;47.40;100714.97;6310515;22;20097;-64
2022/04/22 03:28:18;;;;;;;13.50;10.80;;;;;;;13.88;47.44;100715.22;6285752;22;20479;-64
2022/04/22 03:30:44;;;;;;;12.90;10.40;;;;;;;13.87;47.64;100719.78;6311721;22;20021;-65
2022/04/22 03:33:11;;;;;;;13.45;10.82;;;;;;;13.87;47.70;100713.53;6339967;22;20098;-65
2022/04/22 03:35:38;;;;;;;14.45;10.82;;;;;;;13.83;47.62;100710.22;6286606;22;20022;-64
2022/04/22 03:38:05;;;;;;;15.20;11.05;;;;;;;13.79;47.73;100707.94;6340370;22;20007;-65
2022/04/22 03:40:31;;;;;;;14.00;10.48;;;;;;;13.76;47.72;100706.38;6339619;22;20014;-64
2022/04/22 03:42:58;;;;;;;17.40;11.25;;;;;;;13.74;47.87;100711.03;6340007;22;20015;-65
2022/04/22 03:45:24;;;;;;;13.50;11.20;;;;;;;13.73;48.02;100706.63;6340331;22;20007;-65
2022/04/22 03:47:51;;;;;;;17.20;10.80;;;;;;;13.71;47.82;100697.81;6339909;22;20038;-65
2022/04/22 03:50:17;;;;;;;14.95;11.80;;;;;;;13.71;48.09;100696.94;6340365;22;20007;-65
2022/04/22 03:52:51;;;;;;;18.83;11.63;;;;;;;13.68;48.09;100692.69;6312130;22;20046;-64
2022/04/22 03:55:17;;;;;;;16.13;11.35;;;;;;;13.68;48.39;100688.13;6340132;22;20011;-65
2022/04/22 04:00:29;;;;;;;18.93;12.23;;;;;;;13.65;48.45;100691.09;6339922;22;20094;-65
2022/04/22 04:02:56;;;;;;;17.05;12.52;;;;;;;13.68;48.55;100689.97;6339694;22;20328;-65
2022/04/22 04:05:22;;;;;;;16.40;12.18;;;;;;;13.68;48.52;100688.13;6312298;22;20015;-64
2022/04/22 04:07:49;;;;;;;15.50;12.05;;;;;;;13.69;48.60;100689.00;6339896;22;20038;-64
2022/04/22 04:15:58;;;;;;;15.23;11.20;;;;;;;13.71;48.61;100697.81;6339945;22;20011;-64
2022/04/22 04:18:26;;;;;;;16.77;11.43;;;;;;;13.68;48.71;100695.38;6340435;22;20014;-64
2022/04/22 04:23:38;;;;;;;16.00;11.73;;;;;;;13.60;48.77;100696.03;6339630;22;20018;-64
2022/04/22 04:26:06;;;;;;;16.95;11.73;;;;;;;13.58;48.87;100692.63;6339521;22;20015;-64
2022/04/22 04:28:37;;;;;;;17.25;11.75;;;;;;;13.55;48.88;100698.28;6286222;22;20019;-63
2022/04/22 04:31:06;;;;;;;18.63;11.07;;;;;;;13.54;48.91;100688.47;6339186;22;20043;-64
2022/04/22 04:33:33;;;;;;;16.70;11.93;;;;;;;13.52;49.04;100690.44;6312534;22;20022;-64
2022/04/22 04:36:01;;;;;;;15.73;11.90;;;;;;;13.51;49.17;100679.78;6339191;22;20018;-64
2022/04/22 04:38:28;;;;;;;14.05;11.40;;;;;;;13.49;49.23;100688.00;6312378;22;20085;-64
2022/04/22 04:40:55;;;;;;;16.23;10.95;;;;;;;13.49;49.37;100690.72;6311757;22;20018;-63
2022/04/22 04:43:22;;;;;;;14.45;11.73;;;;;;;13.48;49.40;100688.13;6312182;22;20345;-64
2022/04/22 04:45:50;;;;;;;14.45;11.90;;;;;;;13.46;49.63;100688.28;6311846;22;20077;-64
2022/04/22 04:48:18;;;;;;;16.50;12.25;;;;;;;13.46;49.48;100685.56;6312563;22;20011;-64
2022/04/22 04:50:51;;;;;;;17.75;12.48;;;;;;;13.47;49.74;100689.13;6339210;22;20037;-64
2022/04/22 04:53:23;;;;;;;16.58;12.90;;;;;;;13.46;49.89;100687.41;6339877;22;20029;-64
2022/04/22 04:55:53;;;;;;;18.67;12.57;;;;;;;13.44;49.78;100686.69;6311934;22;20018;-64
2022/04/22 04:58:20;;;;;;;19.48;12.20;;;;;;;13.41;49.99;100689.66;6311565;22;20015;-65
2022/04/22 05:00:50;;;;;;;18.67;12.70;;;;;;;13.40;50.33;100685.25;6339298;22;20015;-64
2022/04/22 05:03:16;;;;;;;17.17;12.88;;;;;;;13.41;50.08;100686.94;6312726;22;20015;-64
2022/04/22 05:05:43;;;;;;;19.85;13.05;;;;;;;13.43;50.21;100690.38;6339239;22;20018;-64
2022/04/22 05:08:10;;;;;;;17.25;13.20;;;;;;;13.44;50.47;100694.78;6339617;22;20387;-64
2022/04/22 05:10:37;;;;;;;17.63;13.68;;;;;;;13.45;50.56;100691.97;6339097;22;20006;-65
2022/04/22 05:13:04;;;;;;;19.60;13.77;;;;;;;13.47;50.44;100687.28;6338245;22;20029;-64
2022/04/22 05:15:33;;;;;;;21.70;13.88;;;;;;;13.49;50.60;100688.00;6311189;22;20015;-64
2022/04/22 05:18:02;;;;;;;18.48;13.43;;;;;;;13.53;50.83;100689.47;6286481;22;20007;-65
2022/04/22 05:20:32;;;;;;;18.65;13.68;;;;;;;13.55;50.79;100683.94;6312162;22;20068;-64
2022/04/22 05:22:59;;;;;;;19.17;14.65;;;;;;;13.56;50.93;100691.88;6339606;22;20011;-64
2022/04/22 05:25:26;;;;;;;19.98;15.02;;;;;;;13.59;50.86;100685.38;6339305;22;20010;-65
2022/04/22 05:27:52;;;;;;;20.95;14.88;;;;;;;13.61;51.08;100684.25;6339592;22;20038;-65
2022/04/22 05:33:08;;;;;;;20.55;15.43;;;;;;;13.65;51.17;100687.53;6339253;22;20397;-64
2022/04/22 05:35:34;;;;;;;21.15;14.40;;;;;;;13.68;51.34;100687.28;6339374;22;20455;-64
2022/04/22 05:38:04;;;;;;;21.10;15.05;;;;;;;13.71;51.50;100695.09;6338834;22;20029;-64
2022/04/22 05:40:39;;;;;;;19.95;14.75;;;;;;;13.74;51.62;100697.53;6339119;22;20098;-67
2022/04/22 05:43:07;;;;;;;;;;;;;;;13.75;51.57;100695.69;6339836;22;20013;-64
2022/04/22 05:45:36;;;;;;;19.15;14.82;;;;;;;13.81;51.36;100696.03;6339241;22;19918;-65
2022/04/22 05:48:04;;;;;;;21.67;14.70;;;;;;;13.83;51.33;100695.88;6340090;22;20010;-64
2022/04/22 05:50:30;;;;;;;22.30;15.63;;;;;;;13.83;51.68;100691.34;6340055;22;20022;-67
2022/04/22 05:52:58;;;;;;;21.80;15.90;;;;;;;13.83;51.75;100691.34;6339080;22;20333;-64
2022/04/22 05:55:30;;;;;;;19.83;14.63;;;;;;;13.85;51.99;100689.38;6339348;22;20351;-63
2022/04/22 05:57:57;;;;;;;21.00;15.60;;;;;;;13.88;52.11;100694.50;6311859;22;20014;-66
2022/04/22 06:00:25;;;;;;;20.40;15.50;;;;;;;13.92;52.18;100695.09;6339051;22;20011;-65
2022/04/22 06:02:53;;;;;;;24.35;16.38;;;;;;;13.96;52.54;100702.78;6313107;22;20015;-66
2022/04/22 06:05:21;;;;;;;21.63;15.63;;;;;;;14.00;52.52;100690.72;6286022;22;20051;-64
2022/04/22 06:10:31;;;;;;;20.58;15.73;;;;;;;14.06;52.57;100692.03;6339244;22;20365;-66
2022/04/22 06:10:36;;;;;;;20.10;16.25;;;;;;;14.13;52.63;100692.38;6339244;22;20038;-65
2022/04/22 06:13:03;;;;;;;21.05;15.20;;;;;;;14.18;52.68;100688.28;6338633;22;20011;-64
2022/04/22 06:15:31;;;;;;;20.02;16.30;;;;;;;14.23;52.60;100685.16;6311352;22;20375;-64
2022/04/22 06:17:59;;;;;;;21.23;15.35;;;;;;;14.29;52.76;100687.31;6285615;22;20011;-66
2022/04/22 06:20:26;;;;;;;22.88;16.15;;;;;;;14.35;52.63;100685.91;6311096;22;20459;-64
2022/04/22 06:22:54;;;;;;;20.05;16.30;;;;;;;14.43;52.82;100686.13;6338726;22;20505;-66
2022/04/22 06:25:21;;;;;;;22.95;16.02;;;;;;;14.50;52.80;100688.13;6311541;22;20015;-64
2022/04/22 06:27:48;;;;;;;23.92;16.65;;;;;;;14.59;52.75;100683.75;6311741;22;20072;-65
2022/04/22 06:30:18;;;;;;;21.80;16.27;;;;;;;14.66;52.75;100679.47;6338775;22;20007;-66
2022/04/22 06:32:47;;;;;;;20.17;16.25;;;;;;;14.75;52.92;100683.19;6310935;22;20025;-64
2022/04/22 06:35:15;;;;;;;21.58;15.88;;;;;;;14.83;52.93;100683.34;6338821;22;20025;-64
2022/04/22 06:37:47;;;;;;;20.23;16.38;;;;;;;14.90;52.88;100682.69;6338645;22;20121;-66
2022/04/22 06:45:50;;;;;;;21.25;15.75;;;;;;;15.29;52.80;100681.84;6338792;22;20011;-65
2022/04/22 06:48:17;;;;;;;20.05;15.32;;;;;;;15.41;52.76;100681.53;6310976;22;20049;-65
2022/04/22 06:51:07;;;;;;;17.50;14.38;;;;;;;15.53;52.64;100676.81;6338514;22;20010;-67
2022/04/22 06:53:35;;;;;;;20.35;15.15;;;;;;;15.64;52.47;100679.44;6338490;22;20465;-65
2022/04/22 06:56:04;;;;;;;19.50;15.02;;;;;;;15.77;52.21;100681.81;6286051;22;20015;-66
2022/04/22 06:58:32;;;;;;;20.08;15.57;;;;;;;15.84;52.33;100681.09;6309961;22;20011;-67
2022/04/22 07:00:59;;;;;;;20.02;15.07;;;;;;;15.89;51.91;100678.78;6337910;22;20014;-66
2022/04/22 07:03:40;;;;;;;18.85;15.40;;;;;;;15.95;51.71;100677.34;6338409;22;20018;-67
2022/04/22 07:06:10;;;;;;;17.00;15.18;;;;;;;16.08;51.68;100666.19;6312660;22;20076;-67
2022/04/22 07:08:37;;;;;;;20.98;14.25;;;;;;;16.19;51.60;100676.81;6312731;22;20018;-66
2022/04/22 07:11:06;;;;;;;19.60;15.02;;;;;;;16.29;51.60;100677.63;6340560;22;20018;-65
2022/04/22 07:13:35;;;;;;;16.85;14.55;;;;;;;16.32;51.14;100665.63;6312371;22;20014;-65
2022/04/22 07:16:18;;;;;;;16.80;14.55;;;;;;;16.33;50.99;100673.63;6340546;22;20010;-66
2022/04/22 07:18:45;;;;;;;17.20;14.57;;;;;;;16.38;51.03;100674.06;6340898;22;20010;-66
2022/04/22 07:21:12;;;;;;;16.70;13.98;;;;;;;16.43;50.80;100673.59;6312742;22;20520;-65
2022/04/22 07:23:40;;;;;;;17.65;15.23;;;;;;;16.44;50.96;100670.75;6340241;22;20018;-65
2022/04/22 07:26:09;;;;;;;17.17;14.45;;;;;;;16.44;50.86;100665.31;6312698;22;20011;-65
2022/04/22 07:28:38;;;;;;;18.67;15.18;;;;;;;16.43;50.49;100655.47;6340539;22;20007;-66
2022/04/22 07:31:05;;;;;;;16.73;14.68;;;;;;;16.42;50.59;100652.91;6312849;22;20098;-66
2022/04/22 07:33:32;;;;;;;17.67;14.18;;;;;;;16.41;50.57;100668.31;6312766;22;20057;-64
2022/04/22 07:36:00;;;;;;;17.55;14.32;;;;;;;16.43;50.53;100673.59;6313164;22;20014;-65
2022/04/22 07:38:28;;;;;;;18.98;15.15;;;;;;;16.45;50.38;100660.75;6313089;22;20015;-66
2022/04/22 07:40:55;;;;;;;17.30;13.77;;;;;;;16.46;50.64;100674.16;6339658;22;20476;-67
2022/04/22 07:48:55;;;;;;;18.23;14.32;;;;;;;16.53;50.65;100658.13;6340400;22;20036;-67
2022/04/22 07:51:26;;;;;;;17.50;14.52;;;;;;;16.56;50.61;100659.69;6340062;22;20014;-67
2022/04/22 07:53:56;;;;;;;15.93;14.20;;;;;;;16.60;50.42;100652.94;6339847;22;20019;-67
2022/04/22 07:56:24;;;;;;;18.75;13.65;;;;;;;16.60;50.35;100659.22;6340036;22;20041;-66
2022/04/22 07:58:50;;;;;;;17.08;14.05;;;;;;;16.60;50.59;100659.22;6340271;22;20011;-66
2022/04/22 08:01:17;;;;;;;17.50;14.02;;;;;;;16.64;50.53;100652.50;6340148;22;20345;-66
2022/04/22 08:03:44;;;;;;;16.83;13.98;;;;;;;16.67;50.21;100646.81;6340274;22;20018;-65
2022/04/22 08:06:11;;;;;;;19.25;14.00;;;;;;;16.69;50.17;100649.34;6312584;22;20101;-65
2022/04/22 08:08:37;;;;;;;18.23;13.93;;;;;;;16.70;50.38;100640.22;6340242;22;20025;-65
2022/04/22 08:11:04;;;;;;;19.45;14.45;;;;;;;16.76;50.19;100636.88;6312306;22;20018;-66
2022/04/22 08:13:32;;;;;;;19.50;14.40;;;;;;;16.83;50.23;100624.41;6340166;22;20378;-65
2022/04/22 08:15:59;;;;;;;15.65;13.55;;;;;;;16.90;50.46;100633.63;6339635;22;20007;-65
2022/04/22 08:18:26;;;;;;;19.00;13.98;;;;;;;16.95;50.06;100644.88;6339909;22;20449;-66
2022/04/22 08:20:52;;;;;;;16.92;14.27;;;;;;;17.03;50.06;100627.81;6339819;22;20014;-66
2022/04/22 08:23:21;;;;;;;19.00;13.95;;;;;;;17.10;49.87;100646.06;6339857;22;20110;-65
2022/04/22 08:25:47;;;;;;;18.77;14.10;;;;;;;17.18;49.62;100648.00;6313214;22;20011;-65
2022/04/22 08:28:14;;;;;;;17.10;13.55;;;;;;;17.27;49.65;100649.78;6340093;22;20093;-67
2022/04/22 08:30:41;;;;;;;15.95;13.80;;;;;;;17.38;49.62;100644.09;6339734;22;20007;-67
2022/04/22 08:33:07;;;;;;;15.93;14.25;;;;;;;17.48;49.57;100633.13;6339709;22;20019;-67
2022/04/22 08:35:35;;;;;;;15.38;13.73;;;;;;;17.60;49.08;100625.56;6312269;22;20340;-66
2022/04/22 08:38:03;;;;;;;19.02;14.32;;;;;;;17.73;49.52;100629.59;6339972;22;20472;-66
2022/04/22 08:40:31;;;;;;;17.77;14.02;;;;;;;17.85;49.18;100624.78;6339645;22;20097;-66
2022/04/22 08:43:00;;;;;;;20.73;15.07;;;;;;;18.00;48.97;100627.75;6286825;22;20011;-66
2022/04/22 08:45:28;;;;;;;17.23;13.68;;;;;;;18.17;48.95;100631.38;6339770;22;20011;-67
2022/04/22 08:50:42;;;;;;;17.25;13.93;;;;;;;18.51;48.33;100628.63;6339754;22;20437;-67
2022/04/22 08:53:11;;;;;;;14.40;12.90;;;;;;;18.69;48.03;100623.97;6339934;22;20345;-67
2022/04/22 08:55:40;;;;;;;14.93;13.10;;;;;;;18.88;47.74;100633.69;6338864;22;20018;-67
2022/04/22 08:58:08;;;;;;;15.90;13.00;;;;;;;19.01;47.78;100632.19;6312831;22;20011;-67
2022/04/22 09:00:36;;;;;;;15.48;13.35;;;;;;;19.17;47.02;100622.31;6339599;22;20006;-66
2022/04/22 09:03:03;;;;;;;16.08;13.25;;;;;;;19.28;46.50;100621.97;6340003;22;20018;-67
2022/04/22 09:05:31;;;;;;;17.88;13.40;;;;;;;19.39;46.48;100609.91;6338967;22;20019;-65
2022/04/22 09:07:59;;;;;;;15.38;12.18;;;;;;;19.53;46.38;100603.78;6339208;22;20011;-66
2022/04/22 09:10:25;;;;;;;13.40;10.93;;;;;;;19.65;46.26;100619.59;6339302;22;20022;-66
2022/04/22 09:12:54;;;;;;;13.45;11.40;;;;;;;19.77;46.01;100600.16;6339714;22;20006;-66
2022/04/22 09:15:23;;;;;;;14.98;10.98;;;;;;;19.88;45.59;100603.38;6343839;22;20015;-65
2022/04/22 09:17:49;;;;;;;14.43;11.55;;;;;;;20.02;45.14;100611.84;6343505;22;20026;-63
2022/04/22 09:20:16;;;;;;;13.60;11.60;;;;;;;20.15;44.85;100604.84;6340189;22;20015;-66
2022/04/22 09:22:45;;;;;;;13.05;11.45;;;;;;;20.28;44.75;100598.81;6339391;22;20508;-65
2022/04/22 09:25:21;;;;;;;11.95;10.70;;;;;;;20.43;44.72;100591.59;6311380;22;20326;-65
2022/04/22 09:27:48;;;;;;;11.38;10.02;;;;;;;20.57;44.43;100590.84;6339617;22;20346;-66
2022/04/22 09:30:14;;;;;;;11.63;9.75;;;;;;;20.68;44.03;100575.94;6339136;22;20015;-66
2022/04/22 09:32:44;;;;;;;11.13;9.90;;;;;;;20.79;43.26;100589.16;6339275;22;20041;-64
2022/04/22 09:35:16;;;;;;;11.23;10.00;;;;;;;20.87;42.86;100589.13;6338397;22;20095;-66
2022/04/22 09:43:39;;;;;;;11.20;9.70;;;;;;;20.81;42.12;100576.19;6311543;22;20037;-65
2022/04/22 09:46:32;;;;;;;11.50;9.88;;;;;;;20.78;41.87;100568.34;6338191;22;20121;-66
2022/04/22 09:48:59;;;;;;;15.63;10.50;;;;;;;20.78;41.56;100564.75;6339333;22;20066;-66
2022/04/22 09:51:30;;;;;;;14.30;10.45;;;;;;;20.80;41.48;100574.47;6338756;22;20451;-66
2022/04/22 09:54:09;;;;;;;11.25;9.40;;;;;;;20.81;41.49;100562.56;6338987;22;20318;-66
2022/04/22 09:56:38;;;;;;;11.02;9.90;;;;;;;20.82;41.11;100566.97;6339150;22;20013;-66
2022/04/22 09:59:40;;;;;;;13.70;9.73;;;;;;;20.81;41.08;100551.63;6339129;22;20010;-67
2022/04/22 10:02:11;;;;;;;10.82;9.73;;;;;;;20.84;40.95;100543.09;6183538;23;20036;-65
2022/04/22 10:04:38;;;;;;;11.13;9.93;;;;;;;20.85;40.78;100538.47;6287259;22;20019;-66
2022/04/22 10:07:07;;;;;;;12.80;9.75;;;;;;;20.88;40.63;100552.59;6339097;22;20007;-66
2022/04/22 10:09:36;;;;;;;10.32;9.20;;;;;;;20.94;40.29;100540.09;6339266;22;20015;-67
2022/04/22 10:12:08;;;;;;;11.18;9.70;;;;;;;20.95;40.35;100550.00;6339406;22;20045;-66
2022/04/22 10:14:38;;;;;;;10.80;9.70;;;;;;;20.92;39.79;100536.72;6338407;22;20018;-66
2022/04/22 10:17:06;;;;;;;10.07;9.10;;;;;;;20.86;40.18;100545.63;6311201;22;20038;-65
2022/04/22 10:19:34;;;;;;;12.68;9.93;;;;;;;20.78;39.49;100543.78;6338899;22;20041;-66
2022/04/22 10:22:02;;;;;;;11.00;9.90;;;;;;;20.70;39.46;100540.25;6339005;22;20018;-67
2022/04/22 10:24:31;;;;;;;11.52;10.02;;;;;;;20.58;39.78;100539.84;6338311;22;20043;-66
2022/04/22 10:27:02;;;;;;;13.98;9.98;;;;;;;20.44;39.47;100546.06;6339035;22;20015;-67
2022/04/22 10:29:34;;;;;;;13.57;9.70;;;;;;;20.35;39.95;100547.13;6338647;22;20015;-67
2022/04/22 10:32:04;;;;;;;13.30;10.02;;;;;;;20.27;39.83;100537.13;6311242;22;20017;-67
2022/04/22 10:34:39;;;;;;;14.52;10.82;;;;;;;20.17;39.78;100531.88;6310930;22;20015;-67
2022/04/22 10:37:25;;;;;;;13.75;9.82;;;;;;;20.12;39.94;100531.56;6311355;22;20037;-66
2022/04/22 10:39:54;;;;;;;12.43;10.32;;;;;;;20.10;40.18;100533.63;6340302;22;20447;-67
2022/04/22 10:42:36;;;;;;;11.60;10.38;;;;;;;20.10;40.43;100525.44;6314240;22;20330;-67
2022/04/22 10:47:50;;;;;;;11.93;10.57;;;;;;;20.11;40.12;100523.56;6341019;22;20011;-66
2022/04/22 10:50:37;;;;;;;12.98;10.45;;;;;;;20.08;40.50;100524.78;6340631;22;20452;-67
2022/04/22 10:53:05;;;;;;;14.40;10.57;;;;;;;20.08;40.30;100534.84;6340664;22;20018;-65
2022/04/22 10:55:40;;;;;;;12.90;10.75;;;;;;;20.03;39.85;100532.59;6340317;22;20015;-66
2022/04/22 10:58:26;;;;;;;13.82;10.75;;;;;;;20.00;40.04;100528.38;6340637;22;20008;-66
2022/04/22 11:00:55;;;;;;;17.67;10.98;;;;;;;19.98;40.17;100526.84;6340362;22;20021;-66
2022/04/22 11:03:31;;;;;;;11.07;9.68;;;;;;;19.97;40.49;100522.41;6340559;22;20014;-66
2022/04/22 11:05:59;;;;;;;12.18;10.80;;;;;;;19.98;40.37;100515.94;6312866;22;20437;-66
2022/04/22 11:08:35;;;;;;;12.38;10.55;;;;;;;20.00;40.00;100517.47;6313714;22;20018;-66
2022/04/22 11:11:05;;;;;;;16.67;12.05;;;;;;;20.03;40.54;100524.44;6314826;22;20064;-66
2022/04/22 11:13:41;;;;;;;14.82;11.43;;;;;;;20.01;40.50;100526.50;6340625;22;20404;-67
2022/04/22 11:16:19;;;;;;;13.68;10.77;;;;;;;19.98;40.49;100529.56;6340666;22;20021;-66
2022/04/22 11:19:09;;;;;;;13.45;10.43;;;;;;;19.93;40.14;100521.06;6339560;22;20014;-66
2022/04/22 11:21:39;;;;;;;17.10;11.38;;;;;;;19.91;40.34;100514.94;6340575;22;20015;-66
2022/04/22 11:24:18;;;;;;;14.43;10.43;;;;;;;19.90;40.20;100524.16;6340242;22;20487;-66
2022/04/22 11:26:45;;;;;;;11.90;9.77;;;;;;;19.88;40.12;100523.47;6340198;22;20056;-66
2022/04/22 11:29:14;;;;;;;11.70;9.82;;;;;;;19.85;40.11;100515.66;6340128;22;20098;-66
2022/04/22 11:31:56;;;;;;;10.98;9.88;;;;;;;19.84;40.54;100517.53;6340223;22;20018;-65
2022/04/22 11:34:55;;;;;;;12.00;10.15;;;;;;;19.81;40.46;100522.50;6313858;22;20097;-65
2022/04/22 11:37:22;;;;;;;14.25;9.10;;;;;;;19.84;40.14;100519.41;6326953;22;20022;-65
2022/04/22 11:39:50;;;;;;;11.20;9.75;;;;;;;19.85;40.41;100507.47;6340085;22;20015;-65
2022/04/22 11:42:19;;;;;;;10.98;9.27;;;;;;;19.87;40.72;100514.47;6312741;22;20455;-66
2022/04/22 11:45:05;;;;;;;12.38;8.95;;;;;;;19.89;40.33;100504.22;6287145;22;20379;-66
2022/04/22 11:47:32;;;;;;;13.73;9.73;;;;;;;19.94;40.35;100507.28;6339727;22;20010;-66
2022/04/22 11:50:00;;;;;;;11.13;9.35;;;;;;;19.97;40.05;100504.19;6339879;22;20007;-66
2022/04/22 11:52:30;;;;;;;13.27;9.30;;;;;;;20.01;40.11;100491.06;6340379;22;20011;-66
2022/04/22 11:55:03;;;;;;;11.60;9.35;;;;;;;20.05;40.10;100499.72;6340433;22;20068;-66
2022/04/22 11:57:38;;;;;;;15.02;9.27;;;;;;;20.08;40.47;100499.41;6312954;22;20054;-66
2022/04/22 12:05:51;;;;;;;;;;;;;;;20.03;39.73;100491.72;6340418;22;20025;-66
2022/04/22 12:08:19;;;;;;;11.55;8.80;;;;;;;20.02;39.66;100490.03;6339230;22;19914;-66
2022/04/22 12:10:50;;;;;;;11.82;8.60;;;;;;;19.93;39.94;100486.50;6338871;22;20014;-66
2022/04/22 12:13:17;;;;;;;10.95;8.35;;;;;;;19.91;40.20;100479.53;6338959;22;20022;-66
2022/04/22 12:15:48;;;;;;;12.43;9.00;;;;;;;19.87;40.00;100487.19;6339267;22;20015;-66
2022/04/22 12:18:36;;;;;;;11.38;8.32;;;;;;;19.80;39.59;100478.03;6314894;22;20013;-66